x

9441102 - Westport, Wa (wptw1) Weather Station

8:36 - Wed 25th May 2016 All times are PDT. -7 hours from GMT.

  • Wind
    15mph, 17mph gusts
  • Sea Temp 58°f
  • Air Temp 54°f
  • Sea Pressure 1023.9mb
  • 9441102 - Westport, Wa
  • 9441102 - Westport, Wa

More Historic Weather Station data

Upgrade to MSW Pro to gain access to the past 30 days of data for over 8000 Wavebouys and Weather Stations around the globe.

Join Pro

Comparision Forecast

View Surf forecast
   
mer. 05/25 8:36 15 17 mph 1023.9mb 58f 54f
8:30 15 17 mph 1023.9mb 58f 54f
8:24 15 17 mph 1023.9mb 58f 54f
8:18 15 20 mph 1023.8mb 58f 54f
8:12 14 15 mph 1023.8mb 58f 54f
8:06 15 17 mph 1023.9mb 58f 54f
8:00 15 18 mph 1023.9mb 58f 54f
7:36  -  mph - - 54f
7:30  -  mph 1023.8mb 58f 54f
7:24  -  mph 1023.7mb 58f 54f
7:18  -  mph 1023.7mb 58f 54f
7:12  -  mph 1023.7mb 58f 54f
7:06  -  mph 1023.8mb 58f 54f
7:00  -  mph 1023.8mb 58f 54f
6:36  -  mph - 58f 54f
6:30  -  mph - 57f 54f
6:24  -  mph - - 54f
6:18  -  mph - 57f 54f
6:12  -  mph - 57f 54f
6:06  -  mph - 57f 54f
6:00  -  mph - 57f 54f
5:36 14 18 mph 1024.1mb - 54f
5:30 13 15 mph 1024.1mb - 54f
5:24 15 17 mph 1024.1mb - 54f
5:18 16 17 mph 1024mb - 54f
5:12 16 18 mph 1024.1mb - 54f
5:06 16 18 mph 1024.1mb - 54f
5:00 17 20 mph 1024mb - 54f
4:36 17 18 mph 1024.1mb 56f -
4:30 17 18 mph 1024.1mb 56f -
4:24 17 18 mph 1024.1mb 56f -
4:18 16 18 mph 1024mb 56f -
4:12 15 17 mph 1024mb 56f -
4:06 16 18 mph 1024mb 56f -
4:00 15 17 mph 1024mb 56f -
3:36  -  mph 1024mb 56f 55f
3:30  -  mph 1024mb 57f 55f
3:24  -  mph 1024mb 57f 55f
3:18  -  mph 1024mb 57f 55f
3:12  -  mph 1023.9mb 57f 55f
3:06  -  mph 1023.9mb 57f 55f
3:00  -  mph 1023.9mb 57f 55f
2:36 15 17 mph 1023.8mb 58f 55f
2:30 16 18 mph 1023.8mb 58f 55f
2:24 15 17 mph 1023.8mb 58f 55f
2:18 15 17 mph 1023.7mb 58f 55f
2:12 15 16 mph 1023.7mb 57f 55f
2:06 16 17 mph 1023.7mb 57f 55f
2:00 16 17 mph 1023.7mb 57f 54f
1:36 15 16 mph 1023.6mb 57f 55f
1:30 15 16 mph 1023.4mb 57f 55f
1:24 16 18 mph 1023.4mb 57f 55f
1:18 15 17 mph 1023.4mb 57f 55f
1:12 15 17 mph 1023.3mb 57f 55f
1:06 14 16 mph 1023.3mb 57f 55f
1:00 14 16 mph 1023.3mb 57f 55f
12:36 16 17 mph 1023.2mb 57f 54f
12:30 15 17 mph 1023.1mb 57f 54f
12:24 15 16 mph 1023.1mb 57f 54f
12:18 15 17 mph 1023mb 57f 54f
12:12 14 15 mph 1023mb 57f 54f
12:06 11 14 mph 1022.9mb 57f 55f
12:00 14 15 mph 1022.9mb 57f 54f
11:36 10 11 mph 1022.7mb 57f 54f
11:30 10 13 mph 1022.6mb 58f 54f
11:24 10 13 mph 1022.6mb 58f 54f
11:18 13 14 mph 1022.6mb 58f 54f
11:12 13 14 mph 1022.6mb 58f 54f
11:06 14 15 mph 1022.5mb 58f 54f
11:00 13
mph
1022.5mb 58f 54f
10:36 10 14 mph 1022.3mb 57f 54f
10:30 13 14 mph 1022.3mb 57f 54f
10:24 13 14 mph 1022.2mb 57f 54f
10:18 11 16 mph 1022.1mb 57f 54f
10:12 13 16 mph 1022.2mb 57f 54f
10:06 13 15 mph 1022.1mb 57f 54f
10:00 11 14 mph 1022.1mb 57f 54f
9:36 13 14 mph 1021.7mb 57f 54f
9:30 13 14 mph 1021.6mb 57f 54f
9:24 11 14 mph 1021.5mb 57f 54f
9:18 10 14 mph 1021.5mb 57f 54f
9:12 10 13 mph 1021.4mb 57f 54f
9:06 11 14 mph 1021.4mb 57f 54f
9:00 9 10 mph - - 54f
8:36 13 15 mph - - 53f
8:30 14 16 mph 1021.2mb 57f 53f
8:24 15 17 mph - - 54f
8:18 9 10 mph - - 54f
8:12 9 13 mph 1021.1mb 57f 53f
8:06 11 15 mph - - 54f
8:00 14 15 mph - - 53f
7:36 14 16 mph - - 53f
7:30 14 15 mph - - 54f
7:24 9 11 mph - - 54f
7:12 13 15 mph 1020.6mb 57f 53f
7:06 13 14 mph - - 53f
7:00 11 15 mph - - 54f
6:36 15 16 mph 1020.3mb 57f 54f
6:30 14 16 mph 1020.3mb 57f 54f
6:24 14 16 mph - - 54f
6:18 14 15 mph - - 54f
6:12 13 14 mph - - 54f
6:06 13 14 mph 1020.2mb 57f 54f
6:00 11 14 mph - - 54f
5:36 13 14 mph 1020mb 57f 54f
5:30 13 14 mph 1019.9mb 57f 54f
5:24 13 15 mph 1019.8mb 57f 54f
5:18 13 14 mph 1019.8mb 57f 54f
5:12 15
mph
1019.7mb 57f 54f
5:06 11 14 mph 1019.7mb 57f 54f
5:00 14
mph
1019.6mb 57f 54f
4:36 13
mph
1019.4mb 57f 55f
4:30 9 13 mph 1019.3mb 57f 55f
4:24 10 13 mph 1019.3mb 57f 54f
4:18 11 14 mph 1019.2mb 57f 54f
4:12 13 14 mph 1019.2mb 56f 54f
4:06 13 15 mph 1019.2mb 56f 54f
4:00 13 15 mph 1019.2mb 56f 54f
3:36 9 11 mph 1019.2mb 56f 54f
3:30 7 9 mph 1019.2mb 56f 54f
3:24 8 10 mph 1019.2mb 56f 54f
3:18 6 7 mph 1019.2mb 56f 54f
3:12 6 7 mph 1019.2mb 57f 54f
3:06 6 8 mph 1019.1mb 57f 54f
3:00 8
mph
1019.2mb 57f 54f
2:36 6 7 mph 1019mb 58f 54f
2:30 7
mph
1019mb 58f 54f
2:24 6 7 mph 1019mb 58f 54f
2:18 7 8 mph 1019mb 58f 54f
2:12 7 9 mph 1019mb 58f 54f
2:06 8 9 mph 1018.9mb 58f 54f
2:00 9 11 mph 1018.8mb 58f 54f
1:36 8 10 mph 1018.8mb 58f 54f
1:30 9 10 mph 1018.8mb 58f 54f
1:24 9 10 mph 1018.8mb 58f 54f
1:18 9 10 mph 1018.8mb 58f 54f
1:12 8 10 mph 1018.7mb 58f 54f
1:06 8 10 mph 1018.7mb 58f 54f
1:00 8 9 mph 1018.7mb 58f 54f
12:36 6 8 mph 1018.7mb 58f 54f
12:30 7 8 mph 1018.7mb 58f 54f
12:24 8
mph
- - 54f
12:18 8 9 mph 1018.6mb 58f 54f
12:12 8 9 mph 1018.6mb 58f 54f
12:06 8 9 mph 1018.6mb 58f 54f
12:00 9 10 mph 1018.6mb 58f 54f
mar. 05/24 11:36 10 11 mph 1018.6mb 58f 54f
11:30 10 11 mph 1018.6mb 58f 54f
11:24 10 11 mph 1018.6mb 58f 54f
11:18 9 10 mph 1018.5mb 58f 54f
11:12 9 11 mph 1018.5mb 58f 54f
11:06 9 10 mph 1018.4mb 58f 54f
11:00 9 10 mph 1018.4mb 58f 54f
10:36 10 11 mph 1018.3mb 57f -
10:30 11 13 mph 1018.3mb 57f -
10:24 10 11 mph 1018.3mb 57f -
10:18 10 11 mph 1018.3mb 57f -
10:12 10 11 mph 1018.2mb 57f -
10:06 11 13 mph 1018.2mb 57f -
10:00 11 13 mph 1018.2mb 58f -
9:54 10 13 mph 1018.2mb 58f -
9:48 11 13 mph 1018.1mb 58f -
9:36 11 13 mph 1018.1mb 57f 54f
9:30 11 13 mph 1018mb 58f 54f
9:24 11 13 mph 1018mb 58f 54f
9:18 11 13 mph 1017.9mb 58f 54f
9:12 10 11 mph 1017.9mb 58f 54f
9:06 10 11 mph 1017.8mb 58f 54f
9:00 10 11 mph 1017.8mb 58f 54f
8:54 10 13 mph 1017.8mb 58f 55f
8:48 11 13 mph 1017.7mb 58f 54f
8:36 11 13 mph 1017.6mb 58f 55f
8:30 11 15 mph 1017.5mb 58f 55f
8:24 13 14 mph 1017.5mb 58f 55f
8:18 10 13 mph 1017.6mb 58f 55f
8:12 8 11 mph 1017.5mb 58f 55f
8:06 10 13 mph - - 55f
8:00 11 13 mph 1017.5mb 58f 55f
7:54 11
mph
1017.6mb 58f 55f
7:48 9 13 mph 1017.5mb 58f 55f
7:36  -  mph 1017.6mb 58f 56f
7:30  -  mph 1017.6mb 58f 56f
7:24  -  mph 1017.6mb 58f 56f
7:18  -  mph 1017.5mb 58f 56f
7:12  -  mph 1017.5mb 58f 56f
7:06  -  mph 1017.5mb 58f 56f
7:00  -  mph 1017.5mb 58f 56f
6:54  -  mph 1017.5mb 58f 55f
6:48  -  mph 1017.5mb 58f 55f
6:36 13 14 mph 1017.5mb 58f 56f
6:30 13 14 mph 1017.5mb 58f 56f
6:24 11 15 mph 1017.6mb 57f 56f
6:18 14 15 mph 1017.6mb 57f 55f
6:12 13 15 mph 1017.6mb 57f 56f
6:06 14 16 mph 1017.6mb 57f 56f
6:00 10 14 mph 1017.6mb 57f 56f
5:54 13 15 mph 1017.6mb 57f 56f
5:48 13 14 mph 1017.6mb 57f 56f
5:36  -  mph 1017.6mb 57f 56f
5:30  -  mph 1017.7mb 57f 56f
5:24  -  mph 1017.8mb 57f 56f
5:18  -  mph 1017.7mb 57f 56f
5:12  -  mph 1017.7mb 57f 56f
5:06  -  mph 1017.7mb 57f 56f
5:00  -  mph 1017.6mb 57f 56f
4:54  -  mph 1017.6mb 57f 56f
4:48  -  mph 1017.7mb 57f 55f
4:36  -  mph 1017.7mb 57f 55f
4:30  -  mph 1017.7mb 57f 55f
4:24  -  mph 1017.7mb 57f 56f
4:18  -  mph 1017.7mb 57f 56f
4:12  -  mph 1017.7mb 57f 57f
4:06  -  mph 1017.6mb 57f 57f
4:00  -  mph 1017.7mb 57f 57f
3:54  -  mph 1017.7mb 57f 57f
3:48  -  mph 1017.8mb 57f 56f
3:24  -  mph 1017.8mb 57f -
3:18  -  mph 1017.7mb 57f -
3:12  -  mph 1017.7mb 57f -
3:06  -  mph 1017.7mb 57f -
3:00  -  mph 1017.7mb 57f -
2:54  -  mph 1017.7mb 57f -
2:48  -  mph 1017.7mb 57f -
2:36 10 11 mph 1017.6mb - -
2:30 10 11 mph 1017.6mb - -
2:24 10 11 mph 1017.6mb - -
2:18 11 13 mph 1017.6mb - -
2:12 11 13 mph 1017.6mb - -
2:06 9 13 mph 1017.6mb - -
2:00 11 13 mph 1017.5mb - -
1:54 10 13 mph 1017.5mb - -
1:48 10 11 mph 1017.5mb - -
1:36 11 15 mph 1017.5mb 58f 56f
1:30 14 16 mph 1017.4mb 57f 56f
1:24 14 16 mph 1017.3mb 57f 56f
1:18 13 15 mph 1017.3mb 57f 56f
1:12 11 15 mph 1017.3mb 57f 56f
1:06 14 16 mph 1017.3mb 57f 56f
1:00 14 15 mph 1017.3mb 57f 56f
12:54 14 16 mph 1017.2mb 57f 56f
12:48 14 15 mph 1017.2mb 57f 56f
12:36 14 16 mph 1017.1mb 57f 55f
12:30 13 14 mph 1017.2mb 57f 55f
12:24 13 15 mph 1017.2mb 57f 55f
12:18 13 15 mph 1017.1mb 57f 54f
12:12 14 15 mph 1017.1mb 57f 54f
12:06 13 15 mph 1017.1mb 57f 55f
12:00 11 14 mph 1017.1mb 57f 55f
11:54 13 14 mph 1017mb 57f 55f
11:48 11 14 mph 1017mb 57f 55f
11:36 13 15 mph 1016.9mb 57f 55f
11:30 13 14 mph 1016.9mb 57f 55f
11:24 13 15 mph 1016.9mb 57f 56f
11:18 14 15 mph 1016.8mb 57f 55f
11:12 11 14 mph 1016.9mb 57f 55f
11:06 13 14 mph 1016.8mb 57f 56f
11:00 11 14 mph 1016.7mb 57f 56f
10:54 8
mph
1016.7mb 57f 56f
10:48 7 10 mph 1016.7mb 57f 56f
10:36 9 11 mph 1016.7mb 57f 55f
10:30 10 11 mph 1016.6mb 57f 55f
10:24 9 10 mph 1016.6mb 57f 55f
10:18 9 11 mph 1016.5mb 57f 55f
10:12 11 14 mph 1016.4mb 57f 55f
10:06 11 15 mph 1016.4mb 57f 55f
10:00 13 15 mph 1016.3mb 57f 55f
9:36 13 16 mph 1016.2mb 57f 55f
9:30 13 14 mph 1016.2mb 57f 55f
9:24 13 15 mph 1016.1mb 57f 56f
9:18 14 16 mph 1016.1mb 57f 56f
9:12 11 14 mph 1016.1mb 57f 56f
9:06 11 14 mph 1016mb 57f 56f
9:00 14 16 mph 1016mb 57f 56f
8:54 13 14 mph 1016mb 57f 56f
8:48 11 14 mph 1016mb 57f 56f
8:36 11 13 mph 1016mb 57f 55f
8:30 10 13 mph 1016mb 57f 55f
8:24 11 14 mph 1015.9mb 57f 55f
8:18 9 11 mph 1015.9mb 57f 55f
8:12 9 11 mph 1015.9mb 57f 55f
8:06 9 10 mph 1015.9mb 57f 55f
8:00 8 11 mph 1015.9mb 57f 55f
7:54 9 11 mph 1015.8mb 57f 55f
7:48 8 10 mph 1015.8mb 57f 55f
7:36 6 7 mph 1015.7mb 57f 55f
7:30 6 7 mph 1015.6mb 57f 55f
7:24 6 8 mph 1015.5mb 57f 55f
7:18 7 8 mph 1015.5mb 57f 55f
7:12 7 9 mph 1015.4mb 57f 54f
7:06 7 9 mph 1015.3mb 57f 54f
7:00 7 9 mph 1015.3mb 57f 54f
6:54 8 9 mph 1015.3mb 57f 54f
6:48 7 10 mph 1015.3mb 57f 54f
6:36 6 8 mph 1015.2mb 57f 53f
6:30 7 8 mph 1015.2mb 57f 53f
6:24 7 8 mph 1015.2mb 57f 53f
6:18 7
mph
1015.2mb 57f 53f
6:12 6 7 mph 1015.2mb 57f 53f
6:06 6 8 mph 1015.2mb 56f 53f
6:00 6 8 mph 1015.2mb 56f 53f
5:54 6 8 mph 1015.2mb 56f 53f
5:48 6 8 mph 1015.2mb 56f 53f
5:36 7 8 mph 1015.2mb 56f 53f
5:30 6 9 mph 1015.2mb 56f 53f
5:24 7 8 mph 1015.2mb 56f 53f
5:18 7 8 mph 1015.3mb 56f 53f
5:12 8 10 mph 1015.3mb 56f 53f
5:06 8 10 mph 1015.3mb 56f 53f
5:00 9 11 mph 1015.3mb 56f 53f
4:54 9 11 mph 1015.3mb 56f 53f
4:48 10 11 mph 1015.2mb 56f 53f
4:36 10 11 mph 1015.2mb 56f 53f
4:30 11 14 mph 1015.2mb 56f 53f
4:24 13 15 mph 1015.2mb 56f 53f
4:18 14 16 mph 1015.2mb 56f 53f
4:12 13 15 mph 1015.1mb 56f 53f
4:06 13 16 mph 1015.1mb 56f 53f
4:00 15 17 mph 1015.1mb 56f 53f
3:36 16 18 mph 1015.1mb 56f 53f
3:30 15 16 mph 1015.1mb 56f 53f
3:24 15 17 mph 1015.1mb 56f 53f
3:18 14 17 mph 1015.1mb 56f 53f
3:12 14 16 mph 1015mb 56f 53f
3:06 16 18 mph 1015mb 56f 53f
3:00 15 17 mph 1015mb 56f 53f
2:54 15 18 mph 1015.1mb 56f 53f
2:48 17 18 mph 1015mb 56f 53f
2:36 14 16 mph 1015mb 57f 53f
2:30 13 16 mph 1015mb 57f 53f
2:24 11 15 mph 1015mb 57f 53f
2:18 11 13 mph 1015mb 57f 53f
2:12 11 15 mph 1015mb 57f 53f
2:06 14 15 mph 1015.1mb 57f 53f
2:00 13 14 mph 1015mb 57f 54f
1:54 13 14 mph 1015mb 57f 54f
1:48 13 14 mph 1015mb 57f 54f
1:36 10 13 mph 1015mb 57f 54f
1:30 10 11 mph 1015mb 57f 54f
1:24 9 11 mph 1015mb 57f 54f
1:18 9 10 mph 1015mb 57f 54f
1:12 8 10 mph 1015mb 57f 54f
1:06 8 9 mph 1015.1mb 57f 54f
1:00 8 9 mph 1015.1mb 57f 54f
12:54 8 9 mph 1015mb 57f 54f
12:48 8 9 mph 1015.1mb 57f 54f
12:36 9 10 mph 1015.1mb 57f 54f
12:30 10 11 mph 1015.1mb 57f 54f
12:24 9 11 mph 1015.1mb 57f 54f
12:18 11
mph
1015.1mb 57f 54f
12:12 8 10 mph 1015.1mb 57f 54f
12:06 8 10 mph 1015.1mb 58f 54f
12:00 8 10 mph 1015.1mb 58f 54f
lun. 05/23 11:54 8 10 mph 1015mb 58f 54f
11:48 8 9 mph 1015.1mb 58f 54f
11:36 7 8 mph 1015mb 58f 54f
11:30 7 8 mph 1014.9mb 58f 54f
11:24 7 8 mph 1014.9mb 58f 54f
11:18 7 8 mph 1014.9mb 58f 54f
11:12 7 8 mph 1014.9mb 58f 54f
11:06 6 9 mph 1014.9mb 58f 54f
11:00 7 9 mph 1014.9mb 58f 54f
10:54 8 10 mph 1014.9mb 58f 54f
10:48 7 9 mph 1014.9mb 58f 54f
10:36 8 10 mph 1014.9mb 58f 54f
10:30 8 9 mph 1014.8mb 58f 54f
10:24 7 10 mph 1014.8mb 58f 54f
10:18 10 11 mph 1014.8mb 58f 54f
10:12 9 13 mph 1014.7mb 58f 54f
10:06 10 11 mph 1014.7mb 58f 54f
10:00 10 11 mph 1014.7mb 58f 54f
9:54 10 13 mph 1014.6mb 58f 54f
9:48 10 13 mph 1014.6mb 58f 54f
9:36 8 9 mph 1014.5mb 58f 55f
9:30 9 10 mph 1014.5mb 58f 55f
9:24 10 11 mph 1014.4mb 58f 55f
9:18 9 11 mph 1014.4mb 58f 55f
9:12 9 11 mph 1014.4mb 58f 55f
9:06 10 11 mph 1014.3mb 58f 55f
9:00 9 10 mph 1014.3mb 58f 55f
8:36 9 10 mph 1014.2mb 58f 55f
8:30 9 13 mph 1014.2mb 58f 55f
8:24 9 11 mph 1014.2mb 58f 55f
8:18 10 13 mph 1014.3mb 58f 56f
8:12 9 11 mph 1014.2mb 58f 56f
8:06 9 13 mph 1014.2mb 58f 56f
8:00 9 11 mph 1014.2mb 58f 56f
7:54 10 13 mph 1014.1mb 58f 56f
7:48 10 13 mph 1014.1mb 58f 56f
7:36  -  mph 1014mb 58f 56f
7:30  -  mph 1013.9mb 58f 56f
7:24  -  mph 1013.9mb 58f 56f
7:18  -  mph 1013.9mb 58f 56f
7:12  -  mph 1013.9mb 58f 56f
7:06  -  mph 1014mb 58f 56f
7:00  -  mph 1013.9mb 58f 56f
6:54  -  mph 1013.9mb 58f 56f
6:48  -  mph 1014mb 58f 56f
6:36 8 9 mph 1013.9mb 58f 56f
6:30 7 8 mph 1013.9mb 58f 56f
6:24 7 8 mph 1013.9mb 58f 56f
6:18 7 8 mph 1013.9mb 58f 57f
6:12 7
mph
1014mb 58f 57f
6:06 6 8 mph 1014mb 58f 57f
6:00 7 8 mph 1014mb 58f 57f
5:54 7 8 mph 1014mb 58f 57f
5:48 8 9 mph 1013.9mb 58f 57f
5:36  -  mph - 57f 57f
5:30  -  mph - 57f 57f
5:24  -  mph - 57f 57f
5:18  -  mph - 57f 57f
5:12  -  mph - 57f 57f
5:06  -  mph - 57f 57f
5:00  -  mph - 57f 56f
4:54  -  mph - 57f 56f
4:48  -  mph - 57f 56f
4:36 11 13 mph 1014.4mb 57f 56f
4:30 11 13 mph 1014.4mb 57f 56f
4:24 10 11 mph 1014.4mb 57f 56f
4:18 10 11 mph 1014.4mb 57f 56f
4:12 9 10 mph 1014.5mb 57f 56f
4:06 8 10 mph 1014.5mb 57f 56f
4:00 9 10 mph 1014.5mb 57f 55f
3:54 8 9 mph 1014.5mb 57f 55f
3:48 8 9 mph 1014.5mb 57f 55f
3:36  -  mph - 57f 55f
3:30  -  mph - 57f 55f
3:24  -  mph - 57f 55f
3:18  -  mph - 57f 56f
3:12  -  mph - 57f 56f
3:06  -  mph - 57f 56f
3:00  -  mph - 57f 56f
2:54  -  mph - 57f 56f
2:48  -  mph - 57f 57f
2:36 9 10 mph 1014.4mb 57f 56f
2:30 9 10 mph 1014.3mb 57f 56f
2:24 9 10 mph 1014.2mb 57f 56f
2:18 8 10 mph 1014.2mb 57f 56f
2:12 8 10 mph 1014.2mb 57f 55f
2:06 9 10 mph 1014.2mb 57f 55f
2:00 9 10 mph 1014.2mb 57f 56f
1:36 9 11 mph 1014.1mb 57f 56f
1:30 9 11 mph 1014.1mb 57f 56f
1:24 10 11 mph 1014.1mb 58f 56f
1:18 9 10 mph 1014.2mb 58f 55f
1:12 9 10 mph 1014.1mb 57f 56f
1:06 8 11 mph 1014.2mb 57f 56f
1:00 9 11 mph 1014.1mb 57f 55f
12:54 10 11 mph 1014mb 57f 55f
12:48 10 13 mph 1014mb 57f 55f
12:36 11 13 mph 1014mb 56f 55f
12:30 10 13 mph 1013.9mb 56f 55f
12:24 11 14 mph 1014mb 56f 55f
12:18 10 13 mph 1013.9mb 56f 55f
12:12 10 14 mph 1013.9mb 56f 56f
12:06 10 13 mph 1013.9mb 56f 56f
12:00 9 13 mph 1014mb 56f 56f
11:54 9 11 mph 1014mb 56f 56f
11:48 8 10 mph 1014mb 56f 56f
11:36 9 13 mph 1014mb 56f 56f
11:30 9 13 mph 1014mb 56f 56f
11:24 9 14 mph 1013.9mb 56f 56f
11:18 9 13 mph 1013.9mb 56f 56f
11:12 9 13 mph 1014mb 56f 56f
11:06 9 15 mph 1013.9mb 56f 56f
11:00 10 14 mph 1014mb 56f 56f
10:54 10 16 mph 1014mb 56f 56f
10:48 9 15 mph 1014mb 56f 57f
10:36 11 16 mph 1014mb 56f 56f
10:30 11 16 mph 1014mb 56f 56f
10:24 14 16 mph 1014mb 56f 55f
10:18 10 16 mph 1014mb 56f 56f
10:12 11 17 mph 1014mb 56f 56f
10:06 14 16 mph 1014mb 56f 55f
10:00 11 16 mph 1014.1mb 56f 56f
9:54 10 15 mph 1014.1mb 56f 56f
9:48 8 16 mph 1014.1mb 56f 56f
9:36 11 17 mph 1014.1mb 56f 54f
9:30 11 16 mph 1014.1mb 56f 54f
9:24 14 17 mph 1014mb 56f 54f
9:18 11 17 mph 1014mb 57f 55f
9:12 14 16 mph 1014mb 57f 55f
9:06 9 14 mph 1013.9mb 57f 55f
9:00 11 16 mph 1013.9mb 57f 54f
8:54 14 16 mph 1013.9mb 57f 54f
8:48 11 17 mph 1013.9mb 57f 54f
8:36 9 16 mph 1013.9mb 56f 54f
8:30 13 17 mph 1013.9mb 56f 54f
8:24 11 16 mph 1013.8mb 56f 53f
8:18 14 17 mph 1013.8mb 56f 53f
8:12 9 14 mph 1013.8mb 56f 54f
8:06 8 11 mph 1013.9mb 57f 53f
8:00 7 9 mph 1013.9mb 57f 53f
7:36 1 5 mph 1013.8mb 57f 53f
7:30 3 7 mph 1013.8mb 57f 52f
7:24 3 6 mph 1013.8mb 56f 52f
7:18 5 6 mph 1013.8mb 56f 52f
7:12 5 6 mph 1013.8mb 56f 52f
7:06 6 7 mph 1013.7mb 56f 52f
7:00 6 7 mph 1013.7mb 56f 52f
6:54 5 6 mph 1013.7mb 56f 52f
6:48 6 7 mph 1013.6mb 56f 52f
6:36 6 7 mph 1013.6mb 56f 52f
6:30 6 7 mph 1013.6mb 56f 52f
6:24 5 6 mph 1013.5mb 55f 52f
6:18 6 7 mph 1013.5mb 55f 52f
6:12 7
mph
1013.5mb 55f 52f
6:06 6 7 mph 1013.6mb 55f 52f
6:00 6 7 mph 1013.5mb 55f 52f
5:54 6
mph
1013.4mb 55f 52f
5:48 6 7 mph 1013.5mb 55f 52f
5:36 6 8 mph 1013.5mb 55f 52f
5:30 6 7 mph 1013.6mb 55f 52f
5:24 6 7 mph 1013.6mb 55f 52f
5:18 6 7 mph 1013.6mb 55f 52f
5:12 6 8 mph 1013.6mb 55f 52f
5:06 6 8 mph 1013.6mb 55f 52f
5:00 7 8 mph 1013.6mb 55f 52f
4:54 6 7 mph 1013.5mb 55f 52f
4:48 6 7 mph 1013.5mb 55f 53f
4:36 6 7 mph 1013.5mb 55f 53f
4:30 7 8 mph 1013.5mb 55f 53f
4:24 6 8 mph 1013.6mb 55f 53f
4:18 6 8 mph 1013.6mb 55f 53f
4:12 7 9 mph 1013.7mb 55f 53f
4:06 7 8 mph 1013.8mb 55f 53f
4:00 7 8 mph 1013.8mb 55f 53f
3:54 5 6 mph 1013.8mb 55f 53f
3:36 6 7 mph 1013.7mb 55f 53f
3:30 5 7 mph 1013.7mb 55f 53f
3:24 6 8 mph 1013.7mb 55f 53f
3:18 6 7 mph 1013.7mb 55f 53f
3:12 6 7 mph 1013.7mb 55f 53f
3:06 6 7 mph 1013.7mb 55f 53f
3:00 6 7 mph 1013.7mb 55f 53f
2:54 5 6 mph 1013.7mb 55f 53f
2:48 5 6 mph 1013.7mb 55f 53f
2:36 6 7 mph 1013.7mb 55f 53f
2:30 5 8 mph 1013.8mb 55f 53f
2:24 5 7 mph 1013.8mb 55f 53f
2:18 6 8 mph 1013.8mb 55f 53f
2:12 5 6 mph 1013.8mb 55f 53f
2:06 3 6 mph 1013.8mb 55f 53f
2:00 5 7 mph 1013.8mb 56f 53f
1:36 7 9 mph 1013.8mb 56f 53f
1:30 8 10 mph 1013.9mb 56f 53f
1:24 7 9 mph 1013.9mb 56f 53f
1:18 8 9 mph 1013.9mb 56f 53f
1:12 7 9 mph 1013.9mb 56f 53f
1:06 8 10 mph 1013.9mb 56f 53f
1:00 8 9 mph 1013.9mb 56f 53f
12:54 8 9 mph 1013.9mb 56f 53f
12:48 7 9 mph 1013.9mb 56f 53f
12:36 8 9 mph 1014mb 56f 53f
12:30 7 9 mph 1014mb 56f 53f
12:24 7 8 mph 1014.1mb 56f 53f
12:18 7 9 mph 1014.2mb 56f 53f
12:12 7 8 mph 1014.1mb 56f 53f
12:06 7 8 mph 1014.1mb 56f 53f
12:00 7 8 mph 1014.1mb 56f 53f
dim. 05/22 11:54 6 8 mph 1014.1mb 56f 53f
11:48 5 7 mph 1014.1mb 56f 53f
11:36 7 8 mph 1014.2mb 56f 53f
11:30 7 8 mph 1014.2mb 56f 53f
11:24 6 8 mph 1014.2mb 56f 53f
11:18 6 9 mph 1014.2mb 56f 53f
11:12 6 9 mph 1014.3mb 56f 53f
11:06 6 9 mph 1014.3mb 56f 53f
11:00 7 9 mph 1014.3mb 56f 53f
10:54 8 10 mph 1014.3mb 56f 53f
10:48 7 9 mph 1014.3mb 56f 53f
10:36 7 10 mph 1014.4mb 56f 52f
10:30 7 9 mph 1014.4mb 56f 52f
10:24 7 10 mph 1014.4mb 56f 52f
10:18 6 7 mph 1014.4mb 56f 52f
10:12 6 7 mph 1014.4mb 56f 52f
10:06 6 7 mph 1014.4mb 56f 52f
10:00 6 7 mph 1014.4mb 56f 52f
9:54 5 6 mph 1014.4mb 56f 52f
9:48 6 8 mph 1014.4mb 56f 52f
9:36  -  mph 1014.4mb 56f 52f
9:30  -  mph 1014.3mb 56f 52f
9:24  -  mph 1014.3mb 56f 52f
9:18  -  mph 1014.3mb 56f 52f
9:12  -  mph 1014.3mb 56f 52f
9:06  -  mph 1014.3mb 56f 53f
9:00  -  mph 1014.3mb 56f 53f
8:54  -  mph 1014.3mb 56f 53f
8:48  -  mph 1014.3mb 56f 53f
8:36 9 11 mph 1014.3mb 56f 53f
8:30 7 9 mph 1014.3mb 56f 53f
8:24 7 8 mph 1014.4mb 56f 53f
8:18 8 9 mph 1014.4mb 56f 53f
8:12 6 8 mph 1014.4mb 56f 53f
8:06 5 8 mph 1014.5mb 56f 52f
8:00 5 7 mph 1014.5mb 57f 52f
7:54 5 6 mph 1014.6mb 57f 53f
7:48 5 7 mph 1014.6mb 57f 52f
7:36  -  mph 1014.6mb 57f 53f
7:30  -  mph 1014.6mb 57f 53f
7:24  -  mph 1014.6mb 57f 53f
7:18  -  mph 1014.5mb 57f 53f
7:12  -  mph 1014.5mb 57f 53f
7:06  -  mph 1014.5mb 57f 53f
7:00  -  mph 1014.4mb 57f 54f
6:36  -  mph 1014.4mb 56f 54f
6:30  -  mph 1014.4mb 56f 54f
6:24  -  mph 1014.5mb 56f 54f
6:18  -  mph 1014.5mb 56f 54f
6:12  -  mph 1014.5mb 56f 54f
6:06  -  mph 1014.5mb 56f 54f
6:00  -  mph 1014.5mb 56f 54f
5:54  -  mph 1014.4mb 56f 54f
5:48  -  mph 1014.5mb 56f 54f
5:36  -  mph - 56f 55f
5:30  -  mph - 56f 55f
5:24  -  mph - 56f 56f
5:18  -  mph - 56f 55f
5:12  -  mph - 55f 55f
5:06  -  mph - 55f 55f
5:00  -  mph - 55f 55f
4:54  -  mph - 55f 55f
4:48  -  mph - 55f 55f
4:36 14 16 mph 1014.1mb 55f -
4:30 10 17 mph 1014.1mb 55f -
4:24 13 16 mph 1014.1mb 55f -
4:18 11 16 mph 1014.2mb 55f -
4:12 14 17 mph 1014.2mb 55f -
4:06 11 20 mph 1014.1mb 55f -
4:00 16 18 mph 1014.1mb 55f -
3:54 13 18 mph 1014.2mb 55f -
3:48 14 18 mph 1014.1mb 55f -
3:36  -  mph 1014.1mb 55f 56f
3:30  -  mph 1014.1mb 55f 56f
3:24  -  mph 1014.1mb 55f 56f
3:18  -  mph 1014.2mb 55f 55f
3:12  -  mph 1014.2mb 55f 55f
3:06  -  mph 1014.3mb 55f 55f
3:00  -  mph 1014.3mb 55f 55f
2:54  -  mph 1014.3mb 55f 54f
2:48  -  mph 1014.3mb 55f 54f
2:36 10 15 mph 1014.3mb 55f 55f
2:30 10 16 mph 1014.3mb 55f 55f
2:24 11 15 mph 1014.3mb 55f 55f
2:18 13 16 mph 1014.3mb 55f 55f
2:12 14 16 mph 1014.2mb 55f 54f
2:06 11 18 mph 1014.2mb 55f 56f
2:00 15 18 mph 1014.2mb 55f 55f
1:54 13 17 mph 1014.2mb 55f 56f
1:48 13 17 mph 1014.2mb 55f 56f
1:36 10 14 mph 1014.1mb 55f 56f
1:30 10 13 mph 1014mb 55f 56f
1:24 7 14 mph 1014mb 56f 55f
1:18 10 15 mph 1014mb 56f 55f
1:12 14 15 mph 1014mb 56f 54f
1:06 10 16 mph 1014mb 56f 55f
1:00 13 17 mph 1013.9mb 56f 55f
12:54 13 17 mph 1014mb 56f 55f
12:48 13 15 mph 1014mb 56f 54f
12:36 13 14 mph 1014.2mb 56f 54f
12:30 10 14 mph 1014.1mb 56f 54f
12:24 9 11 mph 1014.1mb 56f 55f
12:18 8 13 mph 1014.2mb 56f 54f
12:12 11 14 mph 1014.2mb 56f 53f
12:06 11 14 mph 1014.2mb 56f 54f
12:00 11 14 mph 1014.2mb 56f 54f
11:36 14 16 mph 1014.3mb 55f 54f
11:30 10 14 mph 1014.3mb 55f 54f
11:24 13 15 mph 1014.2mb 55f 54f
11:18 10 15 mph 1014.2mb 55f 56f
11:12 13 14 mph 1014.2mb 55f 55f
11:06 10 14 mph 1014.1mb 55f 56f
11:00 10 15 mph 1014.2mb 55f 55f
10:54 10 14 mph 1014.3mb 55f 55f
10:48 10 14 mph 1014.3mb 55f 55f
10:36 9 13 mph 1014.3mb 55f 55f
10:30 9 14 mph 1014.2mb 55f 55f
10:24 9 13 mph 1014.2mb 55f 55f
10:18 9 13 mph 1014.2mb 55f 55f
10:12 9 13 mph 1014.2mb 55f 55f
10:06 9 10 mph 1014.2mb 55f 55f
10:00 8 11 mph 1014.2mb 55f 55f
9:54 9 10 mph 1014.3mb 55f 55f
9:48 6 10 mph 1014.2mb 55f 55f
9:36 7 10 mph 1014.1mb 55f 55f
9:30 9 10 mph 1014.1mb 55f 55f
9:24 7 11 mph 1014.1mb 55f 55f
9:18 7 9 mph 1014.1mb 55f 55f
9:12 8 10 mph 1014.1mb 55f 54f
9:06 9 11 mph 1014mb 55f 55f
9:00 9 11 mph 1014mb 55f 55f
8:54 9 13 mph 1014mb 55f 54f
8:48 10 11 mph 1014mb 55f 54f
8:36 6 8 mph 1014mb 55f 53f
8:30 6 8 mph 1014mb 55f 53f
8:24 8 11 mph 1014mb 55f 53f
8:18 8 11 mph 1014mb 55f 53f
8:12 5 8 mph 1013.9mb 55f 53f
8:06 5 8 mph 1013.9mb 55f 53f
8:00 3 6 mph 1013.8mb 55f 53f
7:54 5 7 mph 1013.8mb 55f 52f
7:48 6 8 mph 1013.8mb 55f 52f
7:36 7 8 mph 1013.8mb 55f 51f
7:30 7 9 mph 1013.8mb 55f 51f
7:24 7 9 mph 1013.8mb 55f 51f
7:18 9 11 mph 1013.8mb 55f 52f
7:12 7 10 mph 1013.8mb 55f 52f
7:06 7 9 mph 1013.8mb 55f 52f
7:00 6 8 mph 1013.8mb 55f 51f
6:54 6 7 mph 1013.8mb 55f 51f
6:48 6 7 mph 1013.8mb 55f 51f
6:36 7 8 mph 1013.8mb 55f 51f
6:30 7 8 mph 1013.7mb 55f 51f
6:24 6 8 mph 1013.7mb 55f 51f
6:18 6 8 mph 1013.6mb 55f 51f
6:12 7 8 mph 1013.6mb 55f 51f
6:06 7
mph
1013.6mb 55f 51f
6:00 6 8 mph 1013.5mb 55f 51f
5:54 7 8 mph 1013.4mb 54f 51f
5:48 7 8 mph 1013.4mb 54f 51f
5:36 8
mph
1013.4mb 54f 52f
5:30 7 8 mph 1013.4mb 54f 52f
5:24 7 8 mph 1013.4mb 54f 52f
5:18 7 8 mph 1013.4mb 54f 52f
5:12 7
mph
1013.3mb 54f 52f
5:06 7 8 mph 1013.3mb 54f 52f